Time;durP1;ratioP1;P1;durP2;ratioP2;P2;SDS_P1;SDS_P2;PMS_P1;PMS_P2;Temp;Humidity;BMP_temperature;BMP_pressure;BME280_temperature;BME280_humidity;BME280_pressure;Samples;Min_cycle;Max_cycle;Signal;HPM_P1;HPM_P2
2021/11/21 00:02:07;;;;;;;24.33;8.97;;;8.20;99.90;;;;;;4898664;29;20210;-69
2021/11/21 00:04:34;;;;;;;28.17;9.00;;;8.20;99.90;;;;;;4898843;29;20634;-68
2021/11/21 00:07:01;;;;;;;23.90;9.10;;;8.20;99.90;;;;;;4898617;29;20211;-69
2021/11/21 00:09:28;;;;;;;24.33;9.00;;;8.30;99.90;;;;;;4898482;29;20210;-69
2021/11/21 00:11:55;;;;;;;26.13;9.50;;;8.40;99.90;;;;;;4898105;29;20571;-69
2021/11/21 00:14:23;;;;;;;25.00;8.67;;;8.40;99.90;;;;;;4898358;29;20238;-69
2021/11/21 00:16:52;;;;;;;21.50;8.77;;;8.40;99.90;;;;;;4898339;29;20232;-71
2021/11/21 00:19:19;;;;;;;22.37;8.23;;;8.30;99.90;;;;;;4898263;29;20572;-74
2021/11/21 00:21:46;;;;;;;19.27;7.40;;;8.40;99.90;;;;;;4898215;29;20210;-73
2021/11/21 00:24:13;;;;;;;19.63;7.83;;;8.50;99.90;;;;;;4897849;29;20216;-68
2021/11/21 00:26:40;;;;;;;20.70;8.07;;;8.40;99.90;;;;;;4898092;29;20266;-69
2021/11/21 00:29:07;;;;;;;20.37;7.63;;;8.40;99.90;;;;;;4897718;29;20691;-68
2021/11/21 00:31:35;;;;;;;17.90;7.80;;;8.30;99.90;;;;;;4898075;29;20214;-68
2021/11/21 00:34:02;;;;;;;20.20;7.87;;;8.30;99.90;;;;;;4898019;29;20438;-68
2021/11/21 00:36:29;;;;;;;19.53;8.57;;;8.20;99.90;;;;;;4898122;29;20580;-69
2021/11/21 00:38:56;;;;;;;17.47;7.77;;;8.20;99.90;;;;;;4897888;29;20234;-68
2021/11/21 00:41:23;;;;;;;18.33;7.17;;;8.20;99.90;;;;;;4898440;29;20225;-68
2021/11/21 00:43:49;;;;;;;17.83;8.53;;;8.20;99.90;;;;;;4898185;29;20214;-74
2021/11/21 00:46:16;;;;;;;19.53;7.73;;;8.20;99.90;;;;;;4898082;29;20588;-68
2021/11/21 00:48:45;;;;;;;16.97;6.70;;;8.20;99.90;;;;;;4897758;29;20231;-68
2021/11/21 00:51:12;;;;;;;19.10;8.10;;;8.20;99.90;;;;;;4898151;29;20210;-68
2021/11/21 00:53:42;;;;;;;17.27;6.87;;;8.20;99.90;;;;;;4897654;29;20321;-68
2021/11/21 00:56:09;;;;;;;17.87;7.17;;;8.30;99.90;;;;;;4898098;29;20266;-68
2021/11/21 00:58:37;;;;;;;15.80;6.53;;;8.30;99.90;;;;;;4897812;29;20278;-67
2021/11/21 01:01:06;;;;;;;15.93;6.67;;;8.30;99.90;;;;;;4897786;29;20225;-68
2021/11/21 01:03:33;;;;;;;18.17;6.13;;;8.30;99.90;;;;;;4897637;29;20210;-68
2021/11/21 01:06:02;;;;;;;12.73;6.07;;;8.40;99.90;;;;;;4897638;29;20218;-70
2021/11/21 01:08:29;;;;;;;16.17;6.07;;;8.40;99.90;;;;;;4897848;29;20241;-68
2021/11/21 01:10:58;;;;;;;15.30;6.93;;;8.50;99.90;;;;;;4897523;29;20259;-68
2021/11/21 01:13:26;;;;;;;12.43;5.83;;;8.60;99.90;;;;;;4897490;29;20234;-68
2021/11/21 01:15:53;;;;;;;14.13;6.20;;;8.70;99.90;;;;;;4897573;29;20297;-68
2021/11/21 01:18:20;;;;;;;12.37;6.07;;;8.70;99.90;;;;;;4897261;29;20231;-67
2021/11/21 01:20:47;;;;;;;12.27;5.53;;;8.80;99.90;;;;;;4897544;29;20679;-69
2021/11/21 01:23:16;;;;;;;14.17;6.27;;;8.70;99.90;;;;;;4897617;29;20210;-68
2021/11/21 01:25:45;;;;;;;11.80;5.70;;;8.70;99.90;;;;;;4897592;29;20221;-68
2021/11/21 01:28:12;;;;;;;14.57;6.43;;;8.60;99.90;;;;;;4897346;29;20661;-68
2021/11/21 01:30:39;;;;;;;13.50;6.00;;;8.50;99.90;;;;;;4897578;29;20218;-67
2021/11/21 01:33:06;;;;;;;12.67;5.97;;;8.50;99.90;;;;;;4897078;29;20214;-68
2021/11/21 01:35:33;;;;;;;16.50;6.10;;;8.50;99.90;;;;;;4897477;29;20210;-68
2021/11/21 01:38:01;;;;;;;13.77;5.77;;;8.60;99.90;;;;;;4897716;29;20237;-68
2021/11/21 01:40:30;;;;;;;12.67;5.53;;;8.60;99.90;;;;;;4899414;29;20220;-68
2021/11/21 01:42:58;;;;;;;14.37;6.20;;;8.60;99.90;;;;;;4900955;29;20219;-67
2021/11/21 01:45:25;;;;;;;14.37;5.40;;;8.60;99.90;;;;;;4901099;29;20210;-68
2021/11/21 01:47:52;;;;;;;13.17;5.70;;;8.40;99.90;;;;;;4900599;29;20242;-68
2021/11/21 01:50:23;;;;;;;11.43;4.83;;;8.30;99.90;;;;;;4901128;29;20214;-68
2021/11/21 01:52:50;;;;;;;10.73;4.93;;;8.30;99.90;;;;;;4900810;29;20291;-68
2021/11/21 01:55:18;;;;;;;12.70;5.10;;;8.20;99.90;;;;;;4900759;29;20711;-68
2021/11/21 01:57:46;;;;;;;10.23;4.60;;;8.20;99.90;;;;;;4900587;29;20230;-68
2021/11/21 02:00:14;;;;;;;12.50;5.53;;;8.20;99.90;;;;;;4900612;29;20213;-68
2021/11/21 02:02:42;;;;;;;10.50;4.53;;;8.30;99.90;;;;;;4900792;29;20213;-68
2021/11/21 02:05:09;;;;;;;10.00;4.43;;;8.30;99.90;;;;;;4900538;29;20211;-68
2021/11/21 02:07:36;;;;;;;9.93;4.43;;;8.30;99.90;;;;;;4900535;29;20227;-68
2021/11/21 02:10:04;;;;;;;8.93;3.97;;;8.30;99.90;;;;;;4900593;29;20586;-67
2021/11/21 02:12:31;;;;;;;8.30;4.00;;;8.30;99.90;;;;;;4900434;29;20214;-67
2021/11/21 02:14:59;;;;;;;8.73;3.83;;;8.30;99.90;;;;;;4900598;29;20249;-68
2021/11/21 02:17:27;;;;;;;11.17;4.70;;;8.30;99.90;;;;;;4900088;29;20256;-67
2021/11/21 02:19:55;;;;;;;10.77;4.63;;;8.20;99.90;;;;;;4900249;29;20211;-68
2021/11/21 02:22:23;;;;;;;12.77;5.37;;;8.20;99.90;;;;;;4900310;29;20242;-68
2021/11/21 02:24:50;;;;;;;10.93;4.70;;;8.30;99.90;;;;;;4900228;29;20210;-67
2021/11/21 02:27:20;;;;;;;9.80;4.20;;;8.30;99.90;;;;;;4899980;29;20249;-68
2021/11/21 02:29:46;;;;;;;9.97;4.30;;;8.30;99.90;;;;;;4900180;29;20683;-67
2021/11/21 02:32:13;;;;;;;10.63;4.43;;;8.40;99.90;;;;;;4900164;29;20207;-67
2021/11/21 02:34:40;;;;;;;12.87;4.30;;;8.50;99.90;;;;;;4899904;29;20592;-67
2021/11/21 02:37:08;;;;;;;10.77;4.40;;;8.40;99.90;;;;;;4900126;29;20244;-67
2021/11/21 02:39:38;;;;;;;10.47;4.23;;;8.40;99.90;;;;;;4900067;29;20217;-68
2021/11/21 02:42:06;;;;;;;10.20;4.30;;;8.40;99.90;;;;;;4899906;29;20687;-70
2021/11/21 02:44:32;;;;;;;8.90;4.47;;;8.40;99.90;;;;;;4900554;29;20218;-68
2021/11/21 02:47:00;;;;;;;9.80;4.33;;;8.30;99.90;;;;;;4900064;29;20217;-67
2021/11/21 02:49:26;;;;;;;8.57;3.97;;;8.30;99.90;;;;;;4899946;29;20213;-68
2021/11/21 02:51:53;;;;;;;8.77;4.40;;;8.30;99.90;;;;;;4899266;29;20576;-68
2021/11/21 02:54:20;;;;;;;13.10;4.90;;;8.40;99.90;;;;;;4899836;29;20661;-68
2021/11/21 02:56:48;;;;;;;9.10;4.33;;;8.40;99.90;;;;;;4899801;29;20207;-67
2021/11/21 02:59:25;;;;;;;10.73;4.97;;;8.30;99.90;;;;;;4899729;29;20211;-67
2021/11/21 03:01:52;;;;;;;10.20;4.57;;;8.30;99.90;;;;;;4899836;29;20278;-67
2021/11/21 03:04:22;;;;;;;11.07;4.37;;;8.20;99.90;;;;;;4899762;29;20214;-77
2021/11/21 03:06:49;;;;;;;9.60;3.97;;;8.30;99.90;;;;;;4899250;29;20221;-76
2021/11/21 03:09:21;;;;;;;9.47;4.40;;;8.20;99.90;;;;;;4899410;29;20206;-72
2021/11/21 03:11:52;;;;;;;10.00;4.00;;;8.30;99.90;;;;;;4899311;29;20262;-70
2021/11/21 03:14:19;;;;;;;8.77;4.13;;;8.30;99.90;;;;;;4899265;29;20270;-77
2021/11/21 03:16:47;;;;;;;10.80;3.93;;;8.20;99.90;;;;;;4899101;29;20207;-75
2021/11/21 03:19:14;;;;;;;10.00;4.43;;;8.20;99.90;;;;;;4898970;29;20214;-78
2021/11/21 03:21:41;;;;;;;10.03;4.70;;;8.30;99.90;;;;;;4899096;29;20301;-74
2021/11/21 03:24:07;;;;;;;12.30;4.60;;;8.30;99.90;;;;;;4899160;29;20211;-78
2021/11/21 03:26:34;;;;;;;11.90;4.80;;;8.40;99.90;;;;;;4899223;29;20216;-77
2021/11/21 03:29:05;;;;;;;14.60;4.70;;;8.30;99.90;;;;;;4898999;29;20731;-78
2021/11/21 03:31:33;;;;;;;13.63;5.07;;;8.40;99.90;;;;;;4899064;29;20210;-78
2021/11/21 03:34:00;;;;;;;10.07;4.77;;;8.40;99.90;;;;;;4898811;29;20799;-76
2021/11/21 03:36:28;;;;;;;12.40;4.30;;;8.40;99.90;;;;;;4899271;29;20220;-74
2021/11/21 03:38:55;;;;;;;9.33;4.53;;;8.30;99.90;;;;;;4898897;29;20230;-71
2021/11/21 03:41:22;;;;;;;12.47;4.53;;;8.30;99.90;;;;;;4898790;29;20608;-76
2021/11/21 03:43:49;;;;;;;12.63;5.50;;;8.20;99.90;;;;;;4899059;29;20549;-75
2021/11/21 03:46:17;;;;;;;15.20;5.20;;;8.30;99.90;;;;;;4898596;29;20214;-78
2021/11/21 03:48:44;;;;;;;12.50;5.67;;;8.30;99.90;;;;;;4898586;29;20238;-77
2021/11/21 03:51:11;;;;;;;14.43;5.67;;;8.40;99.90;;;;;;4898856;29;20210;-75
2021/11/21 03:53:39;;;;;;;15.00;5.63;;;8.30;99.90;;;;;;4898521;29;20210;-72
2021/11/21 03:56:06;;;;;;;13.00;5.30;;;8.20;99.90;;;;;;4898582;29;20245;-69
2021/11/21 03:58:32;;;;;;;11.17;4.83;;;8.20;99.90;;;;;;4898413;29;20235;-78
2021/11/21 04:01:00;;;;;;;13.10;5.40;;;8.20;99.90;;;;;;4898473;29;20221;-68
2021/11/21 04:03:28;;;;;;;14.40;5.47;;;8.30;99.90;;;;;;4897995;29;20207;-78
2021/11/21 04:05:55;;;;;;;13.00;5.33;;;8.30;99.90;;;;;;4898311;29;20712;-77
2021/11/21 04:08:21;;;;;;;11.80;5.17;;;8.30;99.90;;;;;;4898571;29;20240;-77
2021/11/21 04:10:48;;;;;;;19.00;6.77;;;8.30;99.90;;;;;;4898575;29;20218;-77
2021/11/21 04:13:15;;;;;;;13.47;5.30;;;8.30;99.90;;;;;;4898231;29;20682;-78
2021/11/21 04:15:42;;;;;;;13.10;5.27;;;8.20;99.90;;;;;;4898562;29;20238;-79
2021/11/21 04:18:09;;;;;;;13.67;5.37;;;8.20;99.90;;;;;;4898493;29;20230;-79
2021/11/21 04:20:38;;;;;;;13.67;5.83;;;8.20;99.90;;;;;;4898214;29;20210;-78
2021/11/21 04:23:05;;;;;;;14.13;5.10;;;8.20;99.90;;;;;;4898292;29;20218;-77
2021/11/21 04:25:32;;;;;;;12.97;5.60;;;8.20;99.90;;;;;;4898433;29;20209;-78
2021/11/21 04:27:59;;;;;;;11.67;4.87;;;8.20;99.90;;;;;;4898010;29;20230;-79
2021/11/21 04:30:25;;;;;;;12.87;5.10;;;8.20;99.90;;;;;;4898031;29;20214;-79
2021/11/21 04:32:52;;;;;;;14.57;5.20;;;8.30;99.90;;;;;;4898180;29;20206;-77
2021/11/21 04:35:21;;;;;;;17.20;6.20;;;8.30;99.90;;;;;;4898052;29;20265;-72
2021/11/21 04:37:50;;;;;;;12.20;4.43;;;8.40;99.90;;;;;;4897971;29;20230;-79
2021/11/21 04:40:18;;;;;;;13.60;5.57;;;8.40;99.90;;;;;;4897684;29;20218;-79
2021/11/21 04:42:45;;;;;;;15.33;5.40;;;8.50;99.90;;;;;;4897811;29;20218;-79
2021/11/21 04:45:13;;;;;;;13.50;5.20;;;8.50;99.90;;;;;;4898109;29;20215;-74
2021/11/21 04:47:40;;;;;;;13.57;4.90;;;8.50;99.90;;;;;;4898136;29;20230;-79
2021/11/21 04:50:09;;;;;;;16.47;6.00;;;8.40;99.90;;;;;;4898130;29;20232;-73
2021/11/21 04:52:36;;;;;;;14.17;5.70;;;8.40;99.90;;;;;;4897739;29;20210;-73
2021/11/21 04:55:06;;;;;;;14.10;5.47;;;8.30;99.90;;;;;;4897579;29;20595;-79
2021/11/21 04:57:33;;;;;;;13.07;5.30;;;8.40;99.90;;;;;;4898000;29;20236;-75
2021/11/21 05:00:00;;;;;;;15.07;5.90;;;8.40;99.90;;;;;;4897802;29;20211;-77
2021/11/21 05:02:27;;;;;;;13.17;5.23;;;8.40;99.90;;;;;;4898134;29;20210;-78
2021/11/21 05:04:53;;;;;;;14.23;5.30;;;8.40;99.90;;;;;;4897862;29;20220;-79
2021/11/21 05:07:20;;;;;;;14.77;5.73;;;8.30;99.90;;;;;;4897708;29;20719;-68
2021/11/21 05:09:47;;;;;;;16.07;5.77;;;8.30;99.90;;;;;;4897451;29;20210;-68
2021/11/21 05:12:15;;;;;;;13.00;5.73;;;8.30;99.90;;;;;;4897751;29;20206;-68
2021/11/21 05:14:42;;;;;;;13.90;5.70;;;8.30;99.90;;;;;;4898617;29;20234;-69
2021/11/21 05:17:09;;;;;;;14.93;6.00;;;8.50;99.90;;;;;;4901539;29;20268;-69
2021/11/21 05:19:36;;;;;;;13.83;5.10;;;8.50;99.90;;;;;;4901661;29;20214;-68
2021/11/21 05:22:03;;;;;;;14.10;5.17;;;8.50;99.90;;;;;;4901247;29;20563;-69
2021/11/21 05:24:30;;;;;;;12.67;5.37;;;8.60;99.90;;;;;;4901677;29;20214;-68
2021/11/21 05:26:57;;;;;;;13.13;5.20;;;8.70;99.90;;;;;;4901175;29;20220;-68
2021/11/21 05:29:25;;;;;;;12.33;5.00;;;8.60;99.90;;;;;;4901237;29;20608;-68
2021/11/21 05:31:52;;;;;;;14.00;5.60;;;8.50;99.90;;;;;;4901166;29;20559;-69
2021/11/21 05:34:19;;;;;;;19.47;5.97;;;8.40;99.90;;;;;;4901012;29;20217;-68
2021/11/21 05:36:46;;;;;;;16.73;5.77;;;8.50;99.90;;;;;;4901159;29;20214;-68
2021/11/21 05:39:13;;;;;;;15.17;5.57;;;8.50;99.90;;;;;;4901150;29;20234;-68
2021/11/21 05:41:40;;;;;;;15.30;5.30;;;8.50;99.90;;;;;;4900715;29;20759;-67
2021/11/21 05:44:07;;;;;;;13.53;5.57;;;8.60;99.90;;;;;;4900997;29;20214;-69
2021/11/21 05:46:35;;;;;;;13.23;4.73;;;8.60;99.90;;;;;;4900416;29;20675;-70
2021/11/21 05:49:02;;;;;;;14.27;5.43;;;8.60;99.90;;;;;;4900793;29;20230;-70
2021/11/21 05:51:29;;;;;;;15.77;5.47;;;8.70;99.90;;;;;;4900891;29;20211;-68
2021/11/21 05:53:56;;;;;;;12.90;5.70;;;8.60;99.90;;;;;;4901015;29;20217;-68
2021/11/21 05:56:23;;;;;;;13.20;5.30;;;8.60;99.90;;;;;;4900663;29;20730;-67
2021/11/21 05:58:49;;;;;;;12.73;5.77;;;8.60;99.90;;;;;;4900912;29;20232;-70
2021/11/21 06:01:17;;;;;;;13.20;5.27;;;8.60;99.90;;;;;;4900800;29;20285;-67
2021/11/21 06:03:46;;;;;;;10.93;4.30;;;8.70;99.90;;;;;;4900444;29;20241;-69
2021/11/21 06:06:13;;;;;;;11.10;4.63;;;8.70;99.90;;;;;;4900454;29;20213;-68
2021/11/21 06:08:39;;;;;;;16.93;5.90;;;8.60;99.90;;;;;;4900324;29;20708;-67
2021/11/21 06:11:06;;;;;;;10.00;4.80;;;8.60;99.90;;;;;;4900351;29;20552;-67
2021/11/21 06:13:33;;;;;;;14.40;5.73;;;8.60;99.90;;;;;;4900333;29;20207;-67
2021/11/21 06:16:00;;;;;;;13.80;4.80;;;8.50;99.90;;;;;;4900408;29;20241;-68
2021/11/21 06:18:27;;;;;;;13.83;5.53;;;8.40;99.90;;;;;;4900135;29;20231;-67
2021/11/21 06:20:55;;;;;;;11.73;4.77;;;8.40;99.90;;;;;;4900630;29;20206;-70
2021/11/21 06:23:22;;;;;;;11.00;4.40;;;8.50;99.90;;;;;;4900320;29;20302;-67
2021/11/21 06:25:48;;;;;;;12.13;4.77;;;8.60;99.90;;;;;;4899805;29;20213;-68
2021/11/21 06:28:16;;;;;;;9.57;4.37;;;8.60;99.90;;;;;;4899350;29;20236;-67
2021/11/21 06:30:43;;;;;;;11.37;5.10;;;8.60;99.90;;;;;;4900029;29;20222;-67
2021/11/21 06:33:10;;;;;;;9.33;4.33;;;8.50;99.90;;;;;;4900283;29;20214;-68
2021/11/21 06:35:38;;;;;;;12.33;5.13;;;8.50;99.90;;;;;;4900081;29;20603;-67
2021/11/21 06:38:06;;;;;;;10.03;4.37;;;8.60;99.90;;;;;;4900230;29;20252;-68
2021/11/21 06:40:33;;;;;;;13.90;5.37;;;8.70;99.90;;;;;;4900525;29;20222;-73
2021/11/21 06:43:00;;;;;;;10.27;4.60;;;8.70;99.90;;;;;;4900085;29;20220;-68
2021/11/21 06:45:27;;;;;;;12.03;4.47;;;8.70;99.90;;;;;;4900108;29;20216;-68
2021/11/21 06:47:54;;;;;;;11.80;4.47;;;8.60;99.90;;;;;;4899749;29;20237;-68
2021/11/21 06:50:21;;;;;;;12.90;4.83;;;8.70;99.90;;;;;;4900031;29;20211;-68
2021/11/21 06:52:49;;;;;;;13.57;5.37;;;8.80;99.90;;;;;;4900176;29;20297;-70
2021/11/21 06:55:17;;;;;;;10.07;4.73;;;8.70;99.90;;;;;;4899715;29;20309;-68
2021/11/21 06:57:45;;;;;;;10.80;4.87;;;8.50;99.90;;;;;;4899610;29;20230;-68
2021/11/21 07:00:13;;;;;;;11.47;4.20;;;8.50;99.90;;;;;;4899339;29;20211;-75
2021/11/21 07:02:41;;;;;;;12.37;4.87;;;8.60;99.90;;;;;;4899868;29;20207;-78
2021/11/21 07:05:08;;;;;;;11.50;4.90;;;8.70;99.90;;;;;;4899525;29;20218;-77
2021/11/21 07:07:36;;;;;;;12.23;5.10;;;8.80;99.90;;;;;;4899857;29;20240;-72
2021/11/21 07:10:04;;;;;;;13.10;5.70;;;8.80;99.90;;;;;;4899564;29;20215;-78
2021/11/21 07:12:33;;;;;;;12.00;5.07;;;8.90;99.90;;;;;;4899299;29;20210;-72
2021/11/21 07:14:59;;;;;;;16.47;5.03;;;8.90;99.90;;;;;;4899430;29;20563;-75
2021/11/21 07:17:26;;;;;;;12.47;5.70;;;8.90;99.90;;;;;;4899163;29;20728;-76
2021/11/21 07:19:53;;;;;;;15.83;5.50;;;8.90;99.90;;;;;;4899246;29;20305;-72
2021/11/21 07:22:20;;;;;;;11.13;5.03;;;8.80;99.90;;;;;;4899325;29;20301;-78
2021/11/21 07:24:47;;;;;;;11.27;4.70;;;8.80;99.90;;;;;;4899318;29;20291;-73
2021/11/21 07:27:14;;;;;;;14.07;5.37;;;8.90;99.90;;;;;;4898821;29;20230;-72
2021/11/21 07:29:42;;;;;;;13.80;6.20;;;8.90;99.90;;;;;;4899059;29;20206;-78
2021/11/21 07:32:10;;;;;;;15.13;5.23;;;8.90;99.90;;;;;;4899048;29;20580;-77
2021/11/21 07:34:37;;;;;;;11.27;4.20;;;9.00;99.90;;;;;;4899136;29;20731;-70
2021/11/21 07:37:04;;;;;;;16.23;4.73;;;9.00;99.90;;;;;;4898870;29;20241;-68
2021/11/21 07:39:31;;;;;;;10.83;4.40;;;9.00;99.90;;;;;;4898998;29;20214;-69
2021/11/21 07:41:58;;;;;;;11.50;3.93;;;9.10;99.90;;;;;;4898640;29;20220;-68
2021/11/21 07:44:25;;;;;;;9.70;3.73;;;9.20;99.90;;;;;;4898963;29;20221;-69
2021/11/21 07:46:53;;;;;;;9.80;3.93;;;9.20;99.90;;;;;;4898755;29;20220;-68
2021/11/21 07:49:20;;;;;;;9.00;3.33;;;9.20;99.90;;;;;;4899048;29;20236;-68
2021/11/21 07:51:47;;;;;;;7.73;3.53;;;9.20;99.90;;;;;;4899020;29;20218;-68
2021/11/21 07:54:14;;;;;;;12.57;3.87;;;9.40;99.90;;;;;;4898631;29;20206;-68
2021/11/21 07:56:41;;;;;;;7.23;3.63;;;9.60;99.90;;;;;;4898696;29;20244;-77
2021/11/21 07:59:09;;;;;;;8.50;3.00;;;9.60;99.90;;;;;;4898804;29;20712;-68
2021/11/21 08:01:36;;;;;;;7.80;3.93;;;9.50;99.90;;;;;;4898813;29;20214;-67
2021/11/21 08:04:04;;;;;;;8.93;3.57;;;9.50;99.90;;;;;;4898369;29;20672;-74
2021/11/21 08:06:32;;;;;;;9.20;3.33;;;9.50;99.90;;;;;;4898332;29;20206;-68
2021/11/21 08:08:59;;;;;;;8.10;3.63;;;9.50;99.90;;;;;;4898084;29;20233;-68
2021/11/21 08:11:25;;;;;;;7.90;3.67;;;9.60;99.90;;;;;;4898524;29;20214;-72
2021/11/21 08:13:52;;;;;;;10.50;4.07;;;9.70;99.90;;;;;;4898323;29;20664;-67
2021/11/21 08:16:19;;;;;;;12.53;4.17;;;9.70;99.90;;;;;;4898729;29;20241;-76
2021/11/21 08:18:46;;;;;;;8.07;3.53;;;9.80;99.90;;;;;;4898330;29;20230;-69
2021/11/21 08:21:14;;;;;;;6.73;3.33;;;9.80;99.90;;;;;;4898199;29;20210;-69
2021/11/21 08:23:41;;;;;;;6.90;3.13;;;9.80;99.90;;;;;;4898332;29;20210;-69
2021/11/21 08:26:08;;;;;;;6.40;3.10;;;9.90;99.90;;;;;;4898264;29;20686;-69
2021/11/21 08:28:38;;;;;;;7.83;3.50;;;10.00;99.90;;;;;;4897848;29;20230;-76
2021/11/21 08:31:05;;;;;;;8.13;3.30;;;10.20;99.90;;;;;;4898141;29;20217;-69
2021/11/21 08:33:32;;;;;;;6.97;3.57;;;10.20;99.90;;;;;;4898295;29;20210;-71
2021/11/21 08:35:59;;;;;;;6.47;3.20;;;10.30;99.90;;;;;;4898224;29;20226;-75
2021/11/21 08:38:27;;;;;;;5.30;2.93;;;10.60;99.90;;;;;;4898018;29;20707;-70
2021/11/21 08:40:54;;;;;;;8.73;3.50;;;10.70;99.90;;;;;;4898092;29;20268;-68
2021/11/21 08:43:22;;;;;;;6.70;2.97;;;10.80;99.90;;;;;;4897819;29;20217;-69
2021/11/21 08:45:48;;;;;;;8.63;3.27;;;11.00;99.90;;;;;;4898026;29;20218;-68
2021/11/21 08:48:15;;;;;;;6.27;2.87;;;11.10;99.90;;;;;;4897973;29;20226;-76
2021/11/21 08:50:42;;;;;;;5.67;2.90;;;11.00;99.90;;;;;;4897486;29;20681;-73
2021/11/21 08:53:09;;;;;;;7.50;2.63;;;11.10;99.90;;;;;;4898292;29;20214;-71
2021/11/21 08:55:37;;;;;;;8.60;2.93;;;11.10;99.90;;;;;;4897951;29;20236;-69
2021/11/21 08:58:05;;;;;;;5.17;2.33;;;11.20;99.90;;;;;;4897993;29;20237;-68
2021/11/21 09:00:32;;;;;;;5.43;2.30;;;11.30;99.90;;;;;;4897910;29;20233;-70
2021/11/21 09:02:59;;;;;;;4.57;2.43;;;11.30;99.90;;;;;;4897639;29;20612;-70
2021/11/21 09:05:26;;;;;;;6.77;2.67;;;11.30;99.90;;;;;;4897683;29;20218;-68
2021/11/21 09:07:53;;;;;;;5.37;2.53;;;11.40;99.90;;;;;;4897635;29;20234;-69
2021/11/21 09:10:21;;;;;;;6.27;2.60;;;11.50;99.90;;;;;;4897560;29;20210;-71
2021/11/21 09:12:50;;;;;;;4.23;2.10;;;11.40;99.90;;;;;;4897723;29;20221;-70
2021/11/21 09:15:21;;;;;;;6.40;1.80;;;11.40;99.90;;;;;;4897750;29;20217;-70
2021/11/21 09:17:50;;;;;;;4.00;1.90;;;11.40;99.90;;;;;;4897872;29;20246;-69
2021/11/21 09:20:17;;;;;;;6.13;2.10;;;11.50;99.90;;;;;;4897742;29;20584;-73
2021/11/21 09:22:44;;;;;;;2.97;1.60;;;11.60;99.90;;;;;;4897661;29;20218;-69
2021/11/21 09:25:11;;;;;;;7.17;2.40;;;11.60;99.90;;;;;;4897767;29;20211;-69
2021/11/21 09:27:38;;;;;;;4.80;2.10;;;11.60;99.90;;;;;;4897376;29;20238;-70
2021/11/21 09:30:10;;;;;;;6.00;3.20;;;11.40;99.90;;;;;;4897393;29;20580;-70
2021/11/21 09:32:39;;;;;;;10.87;4.20;;;11.40;99.90;;;;;;4897568;29;20217;-69
2021/11/21 09:35:07;;;;;;;6.83;3.27;;;11.40;99.90;;;;;;4897538;29;20219;-72
2021/11/21 09:37:35;;;;;;;6.53;2.53;;;11.50;99.90;;;;;;4897296;29;20249;-70
2021/11/21 09:40:02;;;;;;;6.40;2.17;;;11.30;99.90;;;;;;4897776;29;20294;-69
2021/11/21 09:42:28;;;;;;;4.33;2.10;;;11.00;99.90;;;;;;4897340;29;20214;-69
2021/11/21 09:44:56;;;;;;;2.83;1.60;;;10.60;99.90;;;;;;4897436;29;20221;-69
2021/11/21 09:47:24;;;;;;;3.57;1.77;;;10.20;99.90;;;;;;4897620;29;20241;-69
2021/11/21 09:49:52;;;;;;;3.07;1.87;;;10.00;99.90;;;;;;4897790;29;20213;-70
2021/11/21 09:52:19;;;;;;;4.93;2.20;;;9.90;99.90;;;;;;4897502;29;20242;-69
2021/11/21 09:54:46;;;;;;;3.03;1.60;;;9.90;99.90;;;;;;4897465;29;20246;-79
2021/11/21 09:57:12;;;;;;;6.27;1.70;;;10.00;99.90;;;;;;4897036;29;20246;-70
2021/11/21 09:59:53;;;;;;;4.30;2.50;;;10.00;99.90;;;;;;4898075;29;20215;-70
2021/11/21 10:02:22;;;;;;;5.63;1.83;;;10.00;99.90;;;;;;4899011;29;20246;-74
2021/11/21 10:04:52;;;;;;;3.23;1.43;;;10.00;99.90;;;;;;4900996;29;20211;-72
2021/11/21 10:07:27;;;;;;;4.47;2.10;;;10.10;99.90;;;;;;4900015;29;20286;-77
2021/11/21 10:09:55;;;;;;;4.53;1.63;;;10.10;99.90;;;;;;4900267;29;20217;-71
2021/11/21 10:12:24;;;;;;;5.00;1.17;;;10.10;99.90;;;;;;4900289;29;20214;-69
2021/11/21 10:14:57;;;;;;;3.77;1.73;;;10.20;99.90;;;;;;4900924;29;20210;-70
2021/11/21 10:17:26;;;;;;;2.53;1.10;;;10.30;99.90;;;;;;4900331;29;20246;-70
2021/11/21 10:20:15;;;;;;;3.73;1.13;;;10.50;99.90;;;;;;4900444;29;20229;-69
2021/11/21 10:22:47;;;;;;;3.43;1.20;;;10.50;99.90;;;;;;4900378;29;20682;-70
2021/11/21 10:25:14;;;;;;;5.17;1.20;;;10.60;99.90;;;;;;4900018;29;20218;-70
2021/11/21 10:27:41;;;;;;;3.80;1.37;;;10.70;99.90;;;;;;4899992;29;20248;-67
2021/11/21 10:30:09;;;;;;;2.40;1.10;;;10.70;99.90;;;;;;4899788;29;20211;-69
2021/11/21 10:32:36;;;;;;;1.73;1.00;;;10.80;99.90;;;;;;4899914;29;20217;-68
2021/11/21 10:35:05;;;;;;;3.23;1.23;;;10.80;99.90;;;;;;4900315;29;20214;-68
2021/11/21 10:37:35;;;;;;;2.13;0.90;;;10.80;99.90;;;;;;4899397;29;20703;-70
2021/11/21 10:40:04;;;;;;;1.93;0.90;;;10.90;99.90;;;;;;4899499;29;20220;-68
2021/11/21 10:42:32;;;;;;;1.63;0.90;;;11.00;99.90;;;;;;4899493;29;20213;-71
2021/11/21 10:44:59;;;;;;;4.10;1.00;;;11.10;99.90;;;;;;4899775;29;20225;-68
2021/11/21 10:47:42;;;;;;;2.00;0.87;;;11.30;99.90;;;;;;4899480;29;20238;-68
2021/11/21 10:50:10;;;;;;;2.40;1.20;;;11.40;99.90;;;;;;4899460;29;20207;-68
2021/11/21 10:52:47;;;;;;;2.43;1.00;;;11.60;99.90;;;;;;4899550;29;20211;-69
2021/11/21 10:55:16;;;;;;;3.20;1.20;;;11.80;99.90;;;;;;4899222;29;20213;-68
2021/11/21 10:57:43;;;;;;;6.13;1.60;;;11.80;99.90;;;;;;4899099;29;20608;-69
2021/11/21 11:00:15;;;;;;;3.23;1.00;;;11.90;99.90;;;;;;4899416;29;20679;-69
2021/11/21 11:02:44;;;;;;;2.50;1.00;;;12.00;99.90;;;;;;4899384;29;20214;-68
2021/11/21 11:05:13;;;;;;;3.13;1.10;;;12.10;99.90;;;;;;4899273;29;20242;-68
2021/11/21 11:07:50;;;;;;;3.20;1.00;;;12.10;99.90;;;;;;4899278;29;20234;-75
2021/11/21 11:10:22;;;;;;;2.80;0.90;;;12.20;99.90;;;;;;4899199;29;20305;-68
2021/11/21 11:12:51;;;;;;;3.33;0.80;;;12.00;99.90;;;;;;4899039;29;20262;-72
2021/11/21 11:15:19;;;;;;;2.20;1.00;;;12.00;99.90;;;;;;4899220;29;20214;-68
2021/11/21 11:17:47;;;;;;;3.40;1.20;;;12.10;99.90;;;;;;4899198;29;20249;-68
2021/11/21 11:20:16;;;;;;;1.10;0.67;;;12.20;99.90;;;;;;4899029;29;20210;-68
2021/11/21 11:22:43;;;;;;;2.43;0.87;;;12.10;99.90;;;;;;4898800;29;20324;-68
2021/11/21 11:25:19;;;;;;;3.00;1.10;;;12.10;99.90;;;;;;4899350;29;20210;-69
2021/11/21 11:27:50;;;;;;;1.77;0.73;;;12.10;99.90;;;;;;4899050;29;20587;-68
2021/11/21 11:30:28;;;;;;;5.30;1.10;;;12.10;99.90;;;;;;4898865;29;20212;-68
2021/11/21 11:33:06;;;;;;;4.80;1.00;;;11.90;99.90;;;;;;4898856;29;20210;-68
2021/11/21 11:35:35;;;;;;;2.23;0.93;;;11.90;99.90;;;;;;4898471;29;20742;-68
2021/11/21 11:38:14;;;;;;;4.83;0.83;;;11.80;99.90;;;;;;4898710;29;20249;-71
2021/11/21 11:40:49;;;;;;;4.43;0.97;;;11.70;99.90;;;;;;4898478;29;20612;-68
2021/11/21 11:43:32;;;;;;;5.23;1.20;;;11.70;99.90;;;;;;4898688;29;20213;-68
2021/11/21 11:46:02;;;;;;;3.10;0.90;;;11.60;99.90;;;;;;4898684;29;20722;-69
2021/11/21 11:48:41;;;;;;;4.23;1.20;;;11.60;99.90;;;;;;4898450;29;20708;-69
2021/11/21 11:51:10;;;;;;;3.60;1.13;;;11.60;99.90;;;;;;4898391;29;20214;-68
2021/11/21 11:53:40;;;;;;;1.80;0.80;;;11.60;99.90;;;;;;4898654;29;20214;-81
2021/11/21 11:56:19;;;;;;;3.47;0.90;;;11.70;99.90;;;;;;4898365;29;20232;-68
2021/11/21 11:58:50;;;;;;;1.87;0.80;;;11.80;99.90;;;;;;4898434;29;20241;-68
2021/11/21 12:01:55;;;;;;;5.63;1.20;;;11.70;99.90;;;;;;4898758;29;20233;-69
2021/11/21 12:04:51;;;;;;;2.50;1.10;;;11.50;99.90;;;;;;4898528;29;20220;-71
2021/11/21 12:07:43;;;;;;;8.07;1.90;;;11.40;99.90;;;;;;4898083;29;20234;-69
2021/11/21 12:10:23;;;;;;;4.63;1.53;;;11.20;99.90;;;;;;4898453;29;20218;-69
2021/11/21 12:12:52;;;;;;;5.53;1.27;;;11.30;99.90;;;;;;4898473;29;20222;-73
2021/11/21 12:15:49;;;;;;;3.43;1.00;;;11.00;99.90;;;;;;4897505;29;20206;-69
2021/11/21 12:18:16;;;;;;;3.20;1.33;;;11.10;99.90;;;;;;4885723;29;20262;-69
2021/11/21 12:20:55;;;;;;;4.17;1.00;;;11.30;99.90;;;;;;4896886;29;20210;-79
2021/11/21 12:24:09;;;;;;;2.40;0.70;;;11.40;99.90;;;;;;4903671;29;20205;-69
2021/11/21 12:26:39;;;;;;;2.30;1.10;;;11.30;99.90;;;;;;4915744;29;20600;-72
2021/11/21 12:29:10;;;;;;;1.80;0.63;;;11.10;99.90;;;;;;4915507;29;20703;-69
2021/11/21 12:31:40;;;;;;;1.00;0.60;;;11.00;99.90;;;;;;4916894;29;20210;-69
2021/11/21 12:34:31;;;;;;;3.27;0.60;;;11.00;99.90;;;;;;4916764;29;20206;-69
2021/11/21 12:37:15;;;;;;;3.83;0.83;;;11.20;99.90;;;;;;4915989;29;20636;-69
2021/11/21 12:39:44;;;;;;;1.13;0.60;;;11.40;99.90;;;;;;4916132;29;20213;-71
2021/11/21 12:42:12;;;;;;;3.13;0.63;;;11.50;99.90;;;;;;4993741;23;20229;-70
2021/11/21 12:44:40;;;;;;;2.33;0.50;;;11.60;99.90;;;;;;4992983;28;20600;-71
2021/11/21 12:47:10;;;;;;;6.33;2.03;;;11.70;99.90;;;;;;4990715;28;20211;-71
2021/11/21 12:49:39;;;;;;;4.30;1.50;;;11.80;99.90;;;;;;4973810;28;20207;-71
2021/11/21 12:52:08;;;;;;;3.20;1.23;;;12.00;99.90;;;;;;4973836;28;20211;-72
2021/11/21 12:54:36;;;;;;;3.57;0.90;;;12.00;99.90;;;;;;4973804;28;20210;-70
2021/11/21 12:57:04;;;;;;;2.20;0.87;;;12.10;99.90;;;;;;4973946;28;20238;-71